• Join FlightAware (Why Join?)
  • Login
  • US Flag 
05:14AM EDT


 

Airport Tracker/Info


-or-


 

Live Flight TrackerFlight Track Log ✈ GGN7280 ✈ 10-May-2013 ✈ CYYZ - KALB

Flight Track Log - Related Links

Times and Time Zones

All times are in EDT time to prevent confusion due to time zone crossing. See the GGN7280 flight status page for this flight to view local times or setup timezone preferences in your user account.

Time Position Orientation Groundspeed Altitude Reporting Facility
EDT Latitude Longitude Course Direction KTS MPH feet Rate Location/Type
09:39AM 43.6500 -79.5833 270° West 40 46 500  Level Toronto Center
09:41AM 43.6500 -79.6167 270° West 10 12 500 180 Level Toronto Center
09:42AM 43.6667 -79.5833 55° Northeast 60 69 1,100 900 Climbing Toronto Center
09:43AM 43.6667 -79.5167 90° East 170 196 2,400 1,200 Climbing Toronto Center
09:44AM 43.6500 -79.4500 109° East 210 242 3,600 1,140 Climbing Toronto Center
09:45AM 43.6333 -79.3833 109° East 210 242 4,700 1,080 Climbing Toronto Center
09:46AM 43.6000 -79.3167 125° Southeast 210 242 5,800 1,140 Climbing Toronto Center
09:47AM 43.5667 -79.2500 125° Southeast 210 242 7,000 1,200 Climbing Toronto Center
09:48AM 43.5333 -79.1667 119° Southeast 200 230 8,300 960 Climbing Toronto Center
09:49AM 43.5000 -79.1000 125° Southeast 210 242 9,000 300 Climbing Toronto Center
09:50AM 43.4667 -79.0333 125° Southeast 230 265 9,000  Level Toronto Center
09:51AM 43.4333 -78.9500 119° Southeast 240 276 9,000  Level Toronto Center
09:52AM 43.4000 -78.8833 125° Southeast 240 276 9,000  Level Toronto Center
09:53AM 43.3667 -78.7833 115° Southeast 240 276 9,000  Level Toronto Center
09:54AM 43.3333 -78.7167 124° Southeast 240 276 9,000  Level Toronto Center
09:55AM 43.2944 -78.6608 134° Southeast 244 281 9,000  Level Cleveland Center
09:56AM 43.2753 -78.6214 124° Southeast 243 280 9,000  Level Cleveland Center
09:57AM 43.2364 -78.5428 124° Southeast 248 285 9,000  Level Cleveland Center
09:58AM 43.2014 -78.4644 121° Southeast 245 282 9,000  Level Cleveland Center
09:59AM 43.1936 -78.3706 96° East 254 292 9,000  Level Cleveland Center
10:00AM 43.1831 -78.2656 98° East 253 291 9,000  Level Cleveland Center
10:01AM 43.1708 -78.1692 100° East 257 296 9,000  Level Cleveland Center
10:02AM 43.1625 -78.0700 97° East 263 303 9,000  Level Cleveland Center
10:03AM 43.1497 -77.9708 100° East 263 303 9,000  Level Cleveland Center
10:04AM 43.1392 -77.8747 99° East 264 304 9,000  Level Cleveland Center
10:05AM 43.1264 -77.7700 99° East 268 308 9,000  Level Cleveland Center
10:06AM 43.1156 -77.6681 98° East 268 308 9,000  Level Cleveland Center
10:07AM 43.1211 -77.5597 86° East 272 313 9,000  Level Cleveland Center
10:08AM 43.1225 -77.4628 89° East 271 312 9,000  Level Cleveland Center
10:09AM 43.1258 -77.3572 87° East 274 315 9,000  Level Cleveland Center
10:10AM 43.1333 -77.2517 84° East 274 315 9,000  Level Cleveland Center
10:11AM 43.1356 -77.0786 89° East 276 318 9,000  Level Boston Center
10:12AM 43.1419 -76.9739 85° East 279 321 9,000  Level Boston Center
10:13AM 43.1439 -76.8686 89° East 277 319 9,000 -60 Level Boston Center
10:14AM 43.1333 -76.7500 97° East 280 322 8,900 -60 Descending Toronto Center
10:15AM 43.1333 -76.6667 90° East 270 311 8,900  Level Toronto Center
10:16AM 43.1167 -76.5500 101° East 270 311 8,900  Level Toronto Center
10:18AM 43.1569 -76.3400 75° East 269 310 8,900  Level Boston Center
10:19AM 43.1603 -76.2406 87° East 267 307 9,000  Climbing Boston Center
10:20AM 43.1511 -76.1403 97° East 264 304 8,900 -60 Descending Boston Center
10:21AM 43.1414 -76.0542 99° East 262 302 8,900  Level Boston Center
10:22AM 43.1281 -75.9453 99° East 265 305 9,000  Climbing Boston Center
10:23AM 43.1122 -75.8478 103° East 266 306 9,000 -60 Level Boston Center
10:24AM 43.1006 -75.7475 99° East 266 306 8,900 -60 Descending Boston Center
10:25AM 43.0908 -75.6558 98° East 268 308 8,900  Level Boston Center
10:26AM 43.0769 -75.5472 100° East 270 311 8,900  Level Boston Center
10:27AM 43.0611 -75.4469 102° East 268 308 8,900  Level Boston Center
10:28AM 43.0508 -75.3525 98° East 268 308 8,900  Level Boston Center
10:29AM 43.0367 -75.2525 101° East 269 310 8,900  Level Boston Center
10:30AM 43.0225 -75.1581 102° East 269 310 8,900  Level Boston Center
10:31AM 43.0000 -75.0406 105° East 269 310 8,900  Level Boston Center
10:33AM 42.9778 -74.9233 104° East 269 310 9,000  Climbing Boston Center
10:34AM 42.9589 -74.8347 106° East 264 304 9,000  Level Boston Center
10:35AM 42.9400 -74.7375 105° East 266 306 9,000  Level Boston Center
10:36AM 42.9231 -74.6461 104° East 267 307 9,000  Level Boston Center
10:37AM 42.9039 -74.5489 105° East 267 307 9,000 -300 Level Boston Center
10:37AM 42.8889 -74.4578 103° East 268 308 8,500 -840 Descending Boston Center
10:38AM 42.8803 -74.3528 96° East 283 326 7,400 -1,140 Descending Boston Center
10:39AM 42.8714 -74.2589 97° East 275 316 6,400 -1,140 Descending Boston Center
10:40AM 42.8606 -74.1622 99° East 264 304 5,300 -1,200 Descending Boston Center
10:41AM 42.8575 -74.0744 93° East 258 297 4,100 -1,200 Descending Boston Center
10:42AM 42.8503 -73.9919 97° East 252 290 3,200 -840 Descending Boston Center
10:43AM 42.8369 -73.9039 102° East 206 237 2,600 -600 Descending Boston Center
10:44AM 42.8275 -73.8386 105° East 158 182 2,100 -720 Descending Boston Center
10:45AM 42.7683 -73.8242 105° East  Level Estimated
10:45AM 42.7922 -73.8067 146° Southeast 130 150 1,100  Level Boston Center